createdAt,value
2018-03-17T00:00:19.378Z,87.79
2018-03-17T00:01:28.252Z,87.42
2018-03-17T00:02:37.352Z,87.32
2018-03-17T00:03:46.175Z,88.27
2018-03-17T00:04:55.001Z,87.98
2018-03-17T00:06:03.827Z,87.42
2018-03-17T00:07:12.799Z,87.32
2018-03-17T00:08:21.624Z,87.61
2018-03-17T00:09:30.452Z,86.57
2018-03-17T00:10:39.601Z,86.94
2018-03-17T00:11:48.429Z,86.38
2018-03-17T00:12:57.354Z,86.19
2018-03-17T00:14:06.179Z,84.86
2018-03-17T00:15:15.001Z,85.05
2018-03-17T00:16:24.103Z,85.24
2018-03-17T00:17:32.927Z,85.34
2018-03-17T00:18:41.888Z,85.53
2018-03-17T00:19:50.675Z,85.43
2018-03-17T00:20:59.499Z,85.24
2018-03-17T00:22:08.601Z,85.24
2018-03-17T00:23:17.428Z,84.86
2018-03-17T00:24:26.630Z,84.2
2018-03-17T00:25:35.727Z,83.83
2018-03-17T00:26:44.556Z,83.07
2018-03-17T00:27:53.653Z,82.88
2018-03-17T00:29:02.478Z,82.98
2018-03-17T00:30:11.554Z,83.17
2018-03-17T00:31:20.378Z,82.03
2018-03-17T00:32:29.203Z,81.84
2018-03-17T00:33:38.028Z,81.84
2018-03-17T00:34:46.853Z,82.31
2018-03-17T00:35:55.678Z,80.99
2018-03-17T00:37:04.504Z,80.14
2018-03-17T00:38:13.329Z,80.52
2018-03-17T00:39:22.155Z,80.9
2018-03-17T00:40:30.980Z,81.65
2018-03-17T00:41:39.804Z,81.74
2018-03-17T00:42:48.629Z,81.18
2018-03-17T00:43:57.455Z,80.99
2018-03-17T00:45:06.283Z,80.9
2018-03-17T00:46:15.387Z,80.62
2018-03-17T00:47:24.263Z,80.99
2018-03-17T00:48:33.089Z,80.33
2018-03-17T00:49:41.913Z,80.05
2018-03-17T00:50:50.738Z,80.24
2018-03-17T00:51:59.562Z,80.52
2018-03-17T00:53:08.388Z,80.71
2018-03-17T00:54:17.212Z,80.9
2018-03-17T00:55:26.035Z,80.71
2018-03-17T00:56:34.866Z,80.52
2018-03-17T00:57:43.688Z,80.24
2018-03-17T00:58:52.914Z,80.14
2018-03-17T01:00:01.740Z,80.24
2018-03-17T01:01:10.563Z,79.35
2018-03-17T01:02:19.391Z,79.86
2018-03-17T01:03:28.216Z,80.24
2018-03-17T01:04:37.192Z,80.14
2018-03-17T01:05:46.017Z,79.25
2018-03-17T01:06:54.838Z,79.38
2018-03-17T01:08:03.663Z,79.48
2018-03-17T01:09:12.487Z,79.95
2018-03-17T01:10:21.886Z,79.19
2018-03-17T01:11:30.993Z,79
2018-03-17T01:12:39.824Z,79.35
2018-03-17T01:13:48.922Z,79.29
2018-03-17T01:14:57.746Z,79.35
2018-03-17T01:16:06.672Z,79.25
2018-03-17T01:17:15.496Z,78.78
2018-03-17T01:18:24.320Z,79.06
2018-03-17T01:19:33.473Z,78.97
2018-03-17T01:20:42.300Z,78.59
2018-03-17T01:21:51.271Z,78.59
2018-03-17T01:23:00.372Z,78.87
2018-03-17T01:24:09.194Z,78.4
2018-03-17T01:25:18.021Z,78.21
2018-03-17T01:26:26.842Z,77.83
2018-03-17T01:27:35.667Z,77.83
2018-03-17T01:28:44.491Z,77.97
2018-03-17T01:29:53.318Z,77.08
2018-03-17T01:31:02.153Z,76.61
2018-03-17T01:32:11.252Z,76.04
2018-03-17T01:33:20.230Z,76.17
2018-03-17T01:34:29.053Z,76.42
2018-03-17T01:35:37.889Z,77.26
2018-03-17T01:36:46.703Z,77.08
2018-03-17T01:37:55.529Z,77.45
2018-03-17T01:39:04.457Z,77.74
2018-03-17T01:40:13.283Z,78.31
2018-03-17T01:41:22.107Z,79.06
2018-03-17T01:42:31.204Z,78.68
2018-03-17T01:43:40.308Z,78.68
2018-03-17T01:44:49.381Z,78.4
2018-03-17T01:45:58.204Z,77.55
2018-03-17T01:47:07.026Z,77.26
2018-03-17T01:48:15.850Z,76.51
2018-03-17T01:49:24.683Z,76.32
2018-03-17T01:50:33.651Z,76.42
2018-03-17T01:51:42.477Z,76.64
2018-03-17T01:52:51.300Z,76.61
2018-03-17T01:54:00.404Z,76.32
2018-03-17T01:55:09.504Z,76.23
2018-03-17T01:56:18.378Z,76.98
2018-03-17T01:57:27.206Z,77.55
2018-03-17T01:58:36.027Z,77.55
2018-03-17T01:59:44.850Z,76.98
2018-03-17T02:00:53.679Z,76.51
2018-03-17T02:02:02.496Z,76.51
2018-03-17T02:03:11.320Z,76.61
2018-03-17T02:04:20.145Z,77.17
2018-03-17T02:05:29.246Z,77.17
2018-03-17T02:06:38.353Z,77.08
2018-03-17T02:07:47.327Z,77.93
2018-03-17T02:08:56.154Z,78.5
2018-03-17T02:10:04.977Z,78.4
2018-03-17T02:11:13.801Z,78.02
2018-03-17T02:12:22.626Z,77.64
2018-03-17T02:13:31.454Z,76.61
2018-03-17T02:14:40.553Z,75.38
2018-03-17T02:15:49.374Z,75.76
2018-03-17T02:16:58.197Z,76.32
2018-03-17T02:18:07.023Z,76.42
2018-03-17T02:19:16.157Z,77.17
2018-03-17T02:20:24.950Z,76.98
2018-03-17T02:21:33.823Z,76.23
2018-03-17T02:22:42.644Z,76.32
2018-03-17T02:23:51.469Z,77.08
2018-03-17T02:25:00.400Z,76.32
2018-03-17T02:26:09.218Z,76.14
2018-03-17T02:27:18.050Z,76.61
2018-03-17T02:28:26.873Z,76.32
2018-03-17T02:29:35.701Z,75.66
2018-03-17T02:30:44.573Z,75.85
2018-03-17T02:31:53.399Z,75.95
2018-03-17T02:33:02.224Z,75.95
2018-03-17T02:34:11.049Z,76.23
2018-03-17T02:35:19.874Z,76.42
2018-03-17T02:36:28.769Z,75.85
2018-03-17T02:37:37.868Z,76.7
2018-03-17T02:38:46.692Z,76.61
2018-03-17T02:39:55.794Z,75.57
2018-03-17T02:41:04.901Z,76.04
2018-03-17T02:42:14.025Z,76.7
2018-03-17T02:43:23.409Z,76.14
2018-03-17T02:44:32.516Z,76.51
2018-03-17T02:45:41.341Z,76.51
2018-03-17T02:46:50.169Z,76.42
2018-03-17T02:47:59.321Z,76.7
2018-03-17T02:49:08.146Z,76.51
2018-03-17T02:50:16.969Z,76.23
2018-03-17T02:51:25.795Z,76.79
2018-03-17T02:52:34.622Z,77.26
2018-03-17T02:53:43.494Z,76.42
2018-03-17T02:54:52.319Z,76.51
2018-03-17T02:56:01.143Z,76.51
2018-03-17T02:57:09.966Z,77.08
2018-03-17T02:58:18.825Z,77.26
2018-03-17T02:59:27.650Z,76.61
2018-03-17T03:00:36.477Z,76.61
2018-03-17T03:01:45.301Z,77.08
2018-03-17T03:02:54.127Z,77.83
2018-03-17T03:04:02.951Z,77.17
2018-03-17T03:05:11.922Z,76.98
2018-03-17T03:06:21.309Z,77.36
2018-03-17T03:07:30.150Z,77.61
2018-03-17T03:08:38.965Z,77.17
2018-03-17T03:09:47.794Z,77.36
2018-03-17T03:10:56.667Z,77.08
2018-03-17T03:12:05.491Z,76.95
2018-03-17T03:13:14.316Z,76.95
2018-03-17T03:14:23.141Z,77.61
2018-03-17T03:15:31.969Z,77.8
2018-03-17T03:16:41.347Z,77.64
2018-03-17T03:17:50.172Z,77.32
2018-03-17T03:18:58.994Z,76.32
2018-03-17T03:20:07.822Z,76.47
2018-03-17T03:21:16.647Z,76.61
2018-03-17T03:22:25.469Z,75.38
2018-03-17T03:23:34.290Z,74.81
2018-03-17T03:24:43.114Z,74.9
2018-03-17T03:25:51.938Z,75.34
2018-03-17T03:27:01.035Z,75.19
2018-03-17T03:28:10.164Z,75.19
2018-03-17T03:29:19.274Z,75
2018-03-17T03:30:28.101Z,75
2018-03-17T03:31:36.950Z,75.47
2018-03-17T03:32:45.782Z,75.66
2018-03-17T03:33:54.605Z,75.47
2018-03-17T03:35:03.428Z,75
2018-03-17T03:36:12.249Z,75.76
2018-03-17T03:37:21.073Z,76.04
2018-03-17T03:38:29.900Z,75.95
2018-03-17T03:39:39.157Z,76.7
2018-03-17T03:40:47.983Z,75.57
2018-03-17T03:41:56.807Z,75.57
2018-03-17T03:43:05.631Z,74.71
2018-03-17T03:44:14.454Z,74.9
2018-03-17T03:45:23.276Z,73.77
2018-03-17T03:46:32.098Z,74.24
2018-03-17T03:47:40.923Z,74.81
2018-03-17T03:48:49.749Z,74.53
2018-03-17T03:49:58.570Z,74.71
2018-03-17T03:51:07.494Z,75.15
2018-03-17T03:52:16.606Z,75.62
2018-03-17T03:53:25.430Z,76.09
2018-03-17T03:54:34.527Z,74.81
2018-03-17T03:55:43.351Z,74.24
2018-03-17T03:56:52.224Z,74.05
2018-03-17T03:58:01.049Z,74.24
2018-03-17T03:59:09.872Z,74.4
2018-03-17T04:00:18.696Z,74.49
2018-03-17T04:01:27.517Z,74.05
2018-03-17T04:02:36.926Z,74.58
2018-03-17T04:03:45.751Z,74.49
2018-03-17T04:04:54.575Z,75.34
2018-03-17T04:06:03.397Z,75
2018-03-17T04:07:12.219Z,74.62
2018-03-17T04:08:21.047Z,73.68
2018-03-17T04:09:29.867Z,72.79
2018-03-17T04:10:38.691Z,73.26
2018-03-17T04:11:47.515Z,72.83
2018-03-17T04:12:56.337Z,72.98
2018-03-17T04:14:05.315Z,73.26
2018-03-17T04:15:14.134Z,73.07
2018-03-17T04:16:23.400Z,73.36
2018-03-17T04:17:32.223Z,73.07
2018-03-17T04:18:41.050Z,73.83
2018-03-17T04:19:49.973Z,73.55
2018-03-17T04:20:58.798Z,73.45
2018-03-17T04:22:07.620Z,73.26
2018-03-17T04:23:16.441Z,73.36
2018-03-17T04:24:25.265Z,73.74
2018-03-17T04:25:34.089Z,73.36
2018-03-17T04:26:42.912Z,73.55
2018-03-17T04:27:51.734Z,73.45
2018-03-17T04:29:00.557Z,73.26
2018-03-17T04:30:09.380Z,73.26
2018-03-17T04:31:18.473Z,72.32
2018-03-17T04:32:27.296Z,72.6
2018-03-17T04:33:36.119Z,72.41
2018-03-17T04:34:44.944Z,72.88
2018-03-17T04:35:53.769Z,73.07
2018-03-17T04:37:02.594Z,73.55
2018-03-17T04:38:11.417Z,73.26
2018-03-17T04:39:20.523Z,73.36
2018-03-17T04:40:29.346Z,72.98
2018-03-17T04:41:38.170Z,73.45
2018-03-17T04:42:47.145Z,73.17
2018-03-17T04:43:55.970Z,73.17
2018-03-17T04:45:04.792Z,73.26
2018-03-17T04:46:13.618Z,73.55
2018-03-17T04:47:22.444Z,72.79
2018-03-17T04:48:31.418Z,73.45
2018-03-17T04:49:40.184Z,73.55
2018-03-17T04:50:49.009Z,74.21
2018-03-17T04:51:57.831Z,73.74
2018-03-17T04:53:06.655Z,73.64
2018-03-17T04:54:15.528Z,74.58
2018-03-17T04:55:24.351Z,74.11
2018-03-17T04:56:33.175Z,74.58
2018-03-17T04:57:41.998Z,75.15
2018-03-17T04:58:50.822Z,75.34
2018-03-17T04:59:59.735Z,74.96
2018-03-17T05:01:08.565Z,74.68
2018-03-17T05:02:17.389Z,74.77
2018-03-17T05:03:26.211Z,74.77
2018-03-17T05:04:35.033Z,75.24
2018-03-17T05:05:44.426Z,76
2018-03-17T05:06:53.250Z,76.47
2018-03-17T05:08:02.073Z,76.85
2018-03-17T05:09:10.898Z,76.57
2018-03-17T05:10:19.728Z,76.19
2018-03-17T05:11:28.855Z,75.15
2018-03-17T05:12:37.679Z,75.24
2018-03-17T05:13:46.501Z,76
2018-03-17T05:14:55.324Z,76
2018-03-17T05:16:04.146Z,75.81
2018-03-17T05:17:13.022Z,75.34
2018-03-17T05:18:21.845Z,75.34
2018-03-17T05:19:30.671Z,75.9
2018-03-17T05:20:39.494Z,75.9
2018-03-17T05:21:48.315Z,76.19
2018-03-17T05:22:57.288Z,75.53
2018-03-17T05:24:06.390Z,75.62
2018-03-17T05:25:15.214Z,75.9
2018-03-17T05:26:24.040Z,75.81
2018-03-17T05:27:32.859Z,76.09
2018-03-17T05:28:41.781Z,75.9
2018-03-17T05:29:50.604Z,76.19
2018-03-17T05:30:59.429Z,76.57
2018-03-17T05:32:08.804Z,76.19
2018-03-17T05:33:17.625Z,76.66
2018-03-17T05:34:26.549Z,76.38
2018-03-17T05:35:35.665Z,75.34
2018-03-17T05:36:44.486Z,74.58
2018-03-17T05:37:53.312Z,75.05
2018-03-17T05:39:02.416Z,75.05
2018-03-17T05:40:11.240Z,75.71
2018-03-17T05:41:20.062Z,75.43
2018-03-17T05:42:28.884Z,76.38
2018-03-17T05:43:37.706Z,76.38
2018-03-17T05:44:46.529Z,76.28
2018-03-17T05:45:55.454Z,76.85
2018-03-17T05:47:04.278Z,76.19
2018-03-17T05:48:13.100Z,76.19
2018-03-17T05:49:21.926Z,76.66
2018-03-17T05:50:31.305Z,76.95
2018-03-17T05:51:40.127Z,76.57
2018-03-17T05:52:48.948Z,76.38
2018-03-17T05:53:57.772Z,76.19
2018-03-17T05:55:06.597Z,76.09
2018-03-17T05:56:15.420Z,75.15
2018-03-17T05:57:24.356Z,75.43
2018-03-17T05:58:33.180Z,75.53
2018-03-17T05:59:42.301Z,75.34
2018-03-17T06:00:51.402Z,75.53
2018-03-17T06:02:00.229Z,75.62
2018-03-17T06:03:09.052Z,76
2018-03-17T06:04:17.929Z,76.19
2018-03-17T06:05:26.702Z,75.62
2018-03-17T06:06:35.524Z,75.81
2018-03-17T06:07:44.347Z,76.19
2018-03-17T06:08:53.524Z,76.09
2018-03-17T06:10:02.348Z,76.47
2018-03-17T06:11:11.171Z,75.81
2018-03-17T06:12:19.995Z,75.53
2018-03-17T06:13:28.819Z,75.43
2018-03-17T06:14:37.647Z,75.71
2018-03-17T06:15:46.472Z,76.09
2018-03-17T06:16:55.291Z,75.34
2018-03-17T06:18:04.117Z,76.19
2018-03-17T06:19:12.939Z,75.71
2018-03-17T06:20:21.763Z,75.9
2018-03-17T06:21:30.589Z,75.53
2018-03-17T06:22:39.410Z,74.87
2018-03-17T06:23:48.235Z,75.05
2018-03-17T06:24:57.060Z,74.96
2018-03-17T06:26:05.931Z,75.71
2018-03-17T06:27:14.755Z,75.71
2018-03-17T06:28:23.579Z,75.15
2018-03-17T06:29:32.403Z,74.68
2018-03-17T06:30:41.225Z,74.4
2018-03-17T06:31:50.148Z,75.05
2018-03-17T06:32:58.972Z,75.05
2018-03-17T06:34:07.800Z,74.96
2018-03-17T06:35:16.939Z,74.77
2018-03-17T06:36:25.760Z,75.15
2018-03-17T06:37:34.594Z,75.43
2018-03-17T06:38:43.416Z,75.9
2018-03-17T06:39:52.238Z,76.38
2018-03-17T06:41:01.062Z,75.81
2018-03-17T06:42:09.888Z,75.53
2018-03-17T06:43:18.761Z,75.15
2018-03-17T06:44:27.586Z,75.15
2018-03-17T06:45:36.410Z,75.43
2018-03-17T06:46:45.231Z,74.87
2018-03-17T06:47:54.056Z,75.43
2018-03-17T06:49:02.877Z,75.24
2018-03-17T06:50:11.701Z,75.62
2018-03-17T06:51:20.527Z,74.49
2018-03-17T06:52:29.348Z,74.4
2018-03-17T06:53:38.173Z,74.68
2018-03-17T06:54:47.054Z,74.87
2018-03-17T06:55:56.155Z,75.05
2018-03-17T06:57:04.979Z,76.09
2018-03-17T06:58:13.802Z,76.09
2018-03-17T06:59:22.911Z,75.62
2018-03-17T07:00:32.139Z,75.34
2018-03-17T07:01:40.957Z,75.53
2018-03-17T07:02:49.785Z,75.53
2018-03-17T07:03:58.607Z,76.19
2018-03-17T07:05:07.435Z,75.71
2018-03-17T07:06:16.411Z,75.15
2018-03-17T07:07:25.234Z,75.15
2018-03-17T07:08:34.055Z,75.15
2018-03-17T07:09:42.880Z,75.05
2018-03-17T07:10:51.709Z,74.49
2018-03-17T07:12:00.928Z,74.77
2018-03-17T07:13:09.751Z,74.11
2018-03-17T07:14:18.578Z,74.11
2018-03-17T07:15:27.401Z,74.02
2018-03-17T07:16:36.228Z,74.11
2018-03-17T07:17:45.451Z,74.58
2018-03-17T07:18:54.275Z,74.87
2018-03-17T07:20:03.098Z,75.24
2018-03-17T07:21:11.923Z,76.09
2018-03-17T07:22:20.750Z,76.09
2018-03-17T07:23:29.671Z,76
2018-03-17T07:24:38.496Z,76.19
2018-03-17T07:25:47.323Z,76.19
2018-03-17T07:26:56.147Z,76.38
2018-03-17T07:28:05.253Z,75.71
2018-03-17T07:29:14.173Z,75.43
2018-03-17T07:30:22.997Z,75.43
2018-03-17T07:31:32.096Z,75.71
2018-03-17T07:32:40.919Z,75.34
2018-03-17T07:33:49.743Z,75.71
2018-03-17T07:34:58.722Z,76.19
2018-03-17T07:36:07.825Z,76.38
2018-03-17T07:37:16.928Z,76.76
2018-03-17T07:38:25.753Z,76.95
2018-03-17T07:39:34.578Z,77.42
2018-03-17T07:40:43.408Z,77.42
2018-03-17T07:41:52.227Z,76.95
2018-03-17T07:43:01.052Z,76.47
2018-03-17T07:44:09.875Z,76.47
2018-03-17T07:45:18.732Z,76.47
2018-03-17T07:46:27.634Z,76.09
2018-03-17T07:47:36.458Z,76.28
2018-03-17T07:48:45.281Z,77.04
2018-03-17T07:49:54.107Z,76.95
2018-03-17T07:51:02.931Z,76.76
2018-03-17T07:52:11.805Z,76.66
2018-03-17T07:53:20.631Z,77.23
2018-03-17T07:54:29.452Z,77.23
2018-03-17T07:55:38.278Z,77.7
2018-03-17T07:56:47.108Z,77.42
2018-03-17T07:57:56.412Z,77.04
2018-03-17T07:59:05.238Z,76.76
2018-03-17T08:00:14.063Z,77.04
2018-03-17T08:01:22.886Z,76.76
2018-03-17T08:02:31.709Z,76.76
2018-03-17T08:03:40.809Z,77.32
2018-03-17T08:04:49.636Z,77.51
2018-03-17T08:05:58.462Z,77.42
2018-03-17T08:07:07.285Z,77.04
2018-03-17T08:08:16.109Z,76.28
2018-03-17T08:09:25.524Z,76.47
2018-03-17T08:10:34.347Z,76.28
2018-03-17T08:11:43.172Z,75.43
2018-03-17T08:12:51.997Z,75.9
2018-03-17T08:14:00.823Z,75.9
2018-03-17T08:15:09.701Z,76.19
2018-03-17T08:16:18.524Z,76.28
2018-03-17T08:17:27.347Z,76.51
2018-03-17T08:18:36.174Z,76.57
2018-03-17T08:19:44.997Z,76.57
2018-03-17T08:20:53.924Z,76.28
2018-03-17T08:22:02.748Z,76.89
2018-03-17T08:23:11.570Z,76.51
2018-03-17T08:24:20.393Z,76.04
2018-03-17T08:25:29.219Z,75.38
2018-03-17T08:26:38.041Z,75.95
2018-03-17T08:27:46.866Z,75.28
2018-03-17T08:28:55.690Z,75.95
2018-03-17T08:30:04.514Z,75.66
2018-03-17T08:31:13.339Z,75.09
2018-03-17T08:32:22.167Z,74.62
2018-03-17T08:33:31.269Z,74.24
2018-03-17T08:34:40.095Z,75
2018-03-17T08:35:48.921Z,74.71
2018-03-17T08:36:57.749Z,74.53
2018-03-17T08:38:07.000Z,74.71
2018-03-17T08:39:15.826Z,74.81
2018-03-17T08:40:24.652Z,74.71
2018-03-17T08:41:33.477Z,74.62
2018-03-17T08:42:42.301Z,74.53
2018-03-17T08:43:51.179Z,74.71
2018-03-17T08:44:59.997Z,74.15
2018-03-17T08:46:08.824Z,74.43
2018-03-17T08:47:17.648Z,74.62
2018-03-17T08:48:26.471Z,74.71
2018-03-17T08:49:35.412Z,74.71
2018-03-17T08:50:44.223Z,74.53
2018-03-17T08:51:53.047Z,75.19
2018-03-17T08:53:01.894Z,74.53
2018-03-17T08:54:10.696Z,74.34
2018-03-17T08:55:19.922Z,74.53
2018-03-17T08:56:28.749Z,73.58
2018-03-17T08:57:37.574Z,73.39
2018-03-17T08:58:46.432Z,73.96
2018-03-17T08:59:55.638Z,73.11
2018-03-17T09:01:05.072Z,73.49
2018-03-17T09:02:13.917Z,73.02
2018-03-17T09:03:22.721Z,72.45
2018-03-17T09:04:31.547Z,73.02
2018-03-17T09:05:40.423Z,72.92
2018-03-17T09:06:49.299Z,72.64
2018-03-17T09:07:58.124Z,73.21
2018-03-17T09:09:07.503Z,73.21
2018-03-17T09:10:16.876Z,72.36
2018-03-17T09:11:25.708Z,71.6
2018-03-17T09:12:34.678Z,70.84
2018-03-17T09:13:43.823Z,70.28
2018-03-17T09:14:52.630Z,70.18
2018-03-17T09:16:01.457Z,70
2018-03-17T09:17:10.280Z,69.71
2018-03-17T09:18:19.155Z,68.86
2018-03-17T09:19:27.983Z,69.24
2018-03-17T09:20:37.082Z,69.05
2018-03-17T09:21:45.915Z,68.14
2018-03-17T09:22:54.735Z,68.1
2018-03-17T09:24:03.614Z,67.35
2018-03-17T09:25:12.719Z,67.54
2018-03-17T09:26:21.542Z,67.25
2018-03-17T09:27:30.368Z,67.54
2018-03-17T09:28:39.192Z,67.44
2018-03-17T09:29:48.299Z,66.88
2018-03-17T09:30:57.451Z,66.88
2018-03-17T09:32:06.280Z,67.1
2018-03-17T09:33:15.386Z,66.69
2018-03-17T09:34:24.487Z,66.35
2018-03-17T09:35:33.361Z,66.31
2018-03-17T09:36:42.187Z,66.41
2018-03-17T09:37:51.013Z,66.25
2018-03-17T09:38:59.840Z,66.31
2018-03-17T09:40:08.666Z,66.88
2018-03-17T09:41:17.491Z,66.03
2018-03-17T09:42:26.315Z,65.74
2018-03-17T09:43:35.140Z,65.55
2018-03-17T09:44:43.965Z,65.55
2018-03-17T09:45:52.790Z,65.27
2018-03-17T09:47:01.713Z,65.08
2018-03-17T09:48:10.538Z,64.04
2018-03-17T09:49:19.363Z,64.04
2018-03-17T09:50:28.186Z,63.67
2018-03-17T09:51:37.012Z,63.1
2018-03-17T09:52:45.891Z,62.47
2018-03-17T09:53:54.715Z,61.8
2018-03-17T09:55:03.543Z,61.8
2018-03-17T09:56:12.374Z,61.15
2018-03-17T09:57:21.477Z,60.58
2018-03-17T09:58:30.509Z,60.39
2018-03-17T09:59:39.611Z,59.82
2018-03-17T10:00:48.436Z,58.69
2018-03-17T10:01:57.538Z,58.5
2018-03-17T10:03:06.366Z,58.12
2018-03-17T10:04:15.391Z,58.12
2018-03-17T10:05:24.495Z,57.46
2018-03-17T10:06:33.325Z,57.84
2018-03-17T10:07:42.707Z,58.12
2018-03-17T10:08:51.532Z,58.22
2018-03-17T10:10:00.660Z,58.22
2018-03-17T10:11:09.765Z,58.12
2018-03-17T10:12:18.592Z,58.12
2018-03-17T10:13:27.416Z,57.18
2018-03-17T10:14:36.246Z,57.37
2018-03-17T10:15:45.374Z,57.18
2018-03-17T10:16:54.206Z,57.84
2018-03-17T10:18:03.036Z,57.55
2018-03-17T10:19:11.866Z,57.55
2018-03-17T10:20:20.703Z,56.99
2018-03-17T10:21:29.828Z,56.26
2018-03-17T10:22:38.657Z,56.45
2018-03-17T10:23:47.483Z,55.41
2018-03-17T10:24:56.311Z,55.5
2018-03-17T10:26:05.137Z,55.69
2018-03-17T10:27:14.366Z,55.5
2018-03-17T10:28:23.200Z,55.41
2018-03-17T10:29:32.075Z,54.93
2018-03-17T10:30:40.859Z,54.91
2018-03-17T10:31:49.684Z,55.76
2018-03-17T10:32:58.612Z,55.31
2018-03-17T10:34:07.446Z,55.69
2018-03-17T10:35:16.266Z,55.5
2018-03-17T10:36:25.092Z,55.5
2018-03-17T10:37:33.919Z,55.69
2018-03-17T10:38:42.895Z,55.88
2018-03-17T10:39:51.724Z,55.5
2018-03-17T10:41:00.562Z,55.5
2018-03-17T10:42:09.384Z,55.41
2018-03-17T10:43:18.211Z,55.41
2018-03-17T10:44:27.444Z,55.5
2018-03-17T10:45:36.266Z,55.69
2018-03-17T10:46:45.369Z,55.41
2018-03-17T10:47:54.201Z,55.03
2018-03-17T10:49:03.023Z,55.12
2018-03-17T10:50:12.011Z,54.93
2018-03-17T10:51:20.830Z,54.84
2018-03-17T10:52:29.658Z,55.41
2018-03-17T10:53:38.769Z,54.93
2018-03-17T10:54:47.596Z,55.22
2018-03-17T10:55:56.425Z,54.93
2018-03-17T10:57:05.252Z,55.06
2018-03-17T10:58:14.371Z,55.5
2018-03-17T10:59:23.192Z,55.31
2018-03-17T11:00:32.020Z,55.5
2018-03-17T11:01:40.948Z,55.03
2018-03-17T11:02:49.776Z,55.41
2018-03-17T11:03:58.603Z,55.5
2018-03-17T11:05:07.434Z,55.5
2018-03-17T11:06:16.317Z,55.41
2018-03-17T11:07:25.575Z,54.93
2018-03-17T11:08:34.502Z,54.21
2018-03-17T11:09:43.330Z,54.39
2018-03-17T11:10:52.159Z,54.49
2018-03-17T11:12:00.999Z,54.02
2018-03-17T11:13:09.965Z,53.26
2018-03-17T11:14:18.792Z,53.36
2018-03-17T11:15:27.619Z,52.88
2018-03-17T11:16:36.722Z,52.69
2018-03-17T11:17:45.551Z,52.79
2018-03-17T11:18:54.379Z,52.29
2018-03-17T11:20:03.483Z,52.76
2018-03-17T11:21:12.311Z,52.67
2018-03-17T11:22:21.141Z,52.88
2018-03-17T11:23:29.970Z,52.5
2018-03-17T11:24:38.897Z,52.41
2018-03-17T11:25:47.726Z,52.22
2018-03-17T11:26:56.555Z,52.98
2018-03-17T11:28:05.383Z,52.88
2018-03-17T11:29:14.214Z,52.22
2018-03-17T11:30:23.189Z,52.5
2018-03-17T11:31:32.019Z,52.41
2018-03-17T11:32:40.849Z,52.41
2018-03-17T11:33:49.680Z,52.88
2018-03-17T11:34:58.507Z,52.98
2018-03-17T11:36:07.339Z,52.03
2018-03-17T11:37:16.717Z,51.37
2018-03-17T11:38:25.546Z,51.09
2018-03-17T11:39:34.377Z,50.8
2018-03-17T11:40:43.252Z,51.18
2018-03-17T11:41:52.318Z,51.3
2018-03-17T11:43:01.145Z,50.92
2018-03-17T11:44:09.976Z,50.54
2018-03-17T11:45:18.806Z,50.63
2018-03-17T11:46:27.634Z,51.11
2018-03-17T11:47:36.572Z,50.07
2018-03-17T11:48:45.402Z,50.54
2018-03-17T11:49:54.234Z,49.5
2018-03-17T11:51:03.064Z,49.5
2018-03-17T11:52:11.897Z,47.89
2018-03-17T11:53:20.878Z,47.99
2018-03-17T11:54:29.707Z,47.58
2018-03-17T11:55:38.537Z,47.61
2018-03-17T11:56:47.371Z,47.61
2018-03-17T11:57:56.201Z,47.39
2018-03-17T11:59:05.132Z,47.68
2018-03-17T12:00:13.964Z,47.49
2018-03-17T12:01:22.795Z,47.96
2018-03-17T12:02:31.623Z,48.27
2018-03-17T12:03:40.454Z,48.74
2018-03-17T12:04:49.682Z,48.65
2018-03-17T12:05:58.514Z,48.27
2018-03-17T12:07:07.905Z,47.51
2018-03-17T12:08:16.734Z,47.8
2018-03-17T12:09:25.586Z,47.42
2018-03-17T12:10:34.544Z,47.61
2018-03-17T12:11:43.375Z,47.89
2018-03-17T12:12:52.203Z,47.89
2018-03-17T12:14:01.030Z,48.27
2018-03-17T12:15:09.862Z,47.51
2018-03-17T12:16:18.793Z,47.23
2018-03-17T12:17:27.627Z,47.04
2018-03-17T12:18:36.464Z,46.47
2018-03-17T12:19:45.297Z,47.13
2018-03-17T12:20:54.128Z,46.37
2018-03-17T12:22:03.113Z,45.74
2018-03-17T12:23:11.945Z,45.45
2018-03-17T12:24:20.776Z,44.58
2018-03-17T12:25:29.611Z,44.77
2018-03-17T12:26:38.723Z,44.96
2018-03-17T12:27:47.760Z,45.24
2018-03-17T12:28:56.595Z,45.05
2018-03-17T12:30:05.429Z,45.05
2018-03-17T12:31:14.263Z,44.86
2018-03-17T12:32:23.096Z,45.05
2018-03-17T12:33:31.979Z,45.72
2018-03-17T12:34:40.816Z,45.9
2018-03-17T12:35:49.646Z,45.34
2018-03-17T12:36:58.480Z,45.34
2018-03-17T12:38:07.314Z,45.81
2018-03-17T12:39:16.450Z,45.72
2018-03-17T12:40:25.288Z,45.62
2018-03-17T12:41:34.119Z,46.19
2018-03-17T12:42:42.954Z,46.56
2018-03-17T12:43:51.787Z,45.62
2018-03-17T12:45:00.773Z,45.62
2018-03-17T12:46:09.605Z,45.62
2018-03-17T12:47:18.440Z,45.9
2018-03-17T12:48:27.275Z,46.02
2018-03-17T12:49:36.112Z,46.21
2018-03-17T12:50:45.328Z,45.74
2018-03-17T12:51:54.164Z,45.26
2018-03-17T12:53:03.002Z,45.64
2018-03-17T12:54:11.836Z,45.93
2018-03-17T12:55:20.674Z,46.4
2018-03-17T12:56:29.512Z,46.5
2018-03-17T12:57:38.346Z,46.78
2018-03-17T12:58:47.183Z,45.55
2018-03-17T12:59:56.020Z,45.07
2018-03-17T13:01:04.859Z,44.79
2018-03-17T13:02:13.996Z,44.89
2018-03-17T13:03:22.834Z,45.83
2018-03-17T13:04:31.669Z,45.74
2018-03-17T13:05:40.782Z,45.17
2018-03-17T13:06:49.621Z,45.26
2018-03-17T13:07:58.511Z,45.57
2018-03-17T13:09:07.350Z,45.38
2018-03-17T13:10:16.187Z,45
2018-03-17T13:11:25.308Z,45.67
2018-03-17T13:12:34.146Z,45.83
2018-03-17T13:13:43.087Z,46.02
2018-03-17T13:14:51.924Z,45.83
2018-03-17T13:16:00.761Z,45.1
2018-03-17T13:17:09.600Z,45.29
2018-03-17T13:18:18.439Z,45.45
2018-03-17T13:19:27.702Z,45.67
2018-03-17T13:20:37.088Z,45.74
2018-03-17T13:21:45.930Z,46.61
2018-03-17T13:22:55.042Z,46.61
2018-03-17T13:24:03.882Z,45.76
2018-03-17T13:25:12.995Z,45.74
2018-03-17T13:26:21.830Z,45.45
2018-03-17T13:27:30.669Z,45.07
2018-03-17T13:28:39.501Z,44.98
2018-03-17T13:29:48.336Z,44.98
2018-03-17T13:30:57.658Z,45.83
2018-03-17T13:32:06.492Z,45.55
2018-03-17T13:33:15.325Z,45.26
2018-03-17T13:34:24.162Z,45.07
2018-03-17T13:35:32.994Z,45.26
2018-03-17T13:36:41.879Z,45.45
2018-03-17T13:37:50.715Z,45.26
2018-03-17T13:38:59.547Z,46.4
2018-03-17T13:40:08.382Z,45.83
2018-03-17T13:41:17.277Z,45.26
2018-03-17T13:42:26.048Z,45.07
2018-03-17T13:43:34.881Z,44.43
2018-03-17T13:44:43.713Z,43.87
2018-03-17T13:45:52.821Z,43.75
2018-03-17T13:47:01.655Z,44.15
2018-03-17T13:48:10.587Z,43.94
2018-03-17T13:49:19.420Z,43.75
2018-03-17T13:50:28.278Z,44.03
2018-03-17T13:51:37.365Z,43.65
2018-03-17T13:52:46.474Z,44.13
2018-03-17T13:53:55.358Z,44.53
2018-03-17T13:55:04.195Z,44.7
2018-03-17T13:56:13.030Z,44.32
2018-03-17T13:57:21.864Z,43.96
2018-03-17T13:58:30.700Z,43.39
2018-03-17T13:59:39.584Z,43.01
2018-03-17T14:00:48.419Z,43.01
2018-03-17T14:01:57.533Z,43.11
2018-03-17T14:03:06.645Z,42.82
2018-03-17T14:04:15.482Z,43.65
2018-03-17T14:05:24.695Z,44.24
2018-03-17T14:06:33.530Z,43.49
2018-03-17T14:07:42.369Z,43.87
2018-03-17T14:08:51.207Z,43.2
2018-03-17T14:10:00.042Z,43.2
2018-03-17T14:11:09.221Z,43.11
2018-03-17T14:12:18.060Z,43.01
2018-03-17T14:13:26.893Z,43.08
2018-03-17T14:14:35.728Z,43.94
2018-03-17T14:15:44.564Z,44.98
2018-03-17T14:16:53.497Z,44.98
2018-03-17T14:18:02.332Z,44.72
2018-03-17T14:19:11.175Z,44.62
2018-03-17T14:20:20.010Z,44.72
2018-03-17T14:21:28.844Z,44.34
2018-03-17T14:22:37.832Z,44.34
2018-03-17T14:23:46.720Z,44.34
2018-03-17T14:24:55.507Z,44.34
2018-03-17T14:26:04.350Z,44.72
2018-03-17T14:27:13.188Z,44.72
2018-03-17T14:28:22.078Z,44.62
2018-03-17T14:29:30.917Z,43.87
2018-03-17T14:30:39.813Z,44.15
2018-03-17T14:31:48.652Z,43.51
2018-03-17T14:32:57.770Z,43.01
2018-03-17T14:34:06.709Z,42.66
2018-03-17T14:35:15.552Z,42.73
2018-03-17T14:36:24.392Z,42.92
2018-03-17T14:37:33.230Z,43.11
2018-03-17T14:38:42.069Z,43.39
2018-03-17T14:39:50.909Z,43.68
2018-03-17T14:40:59.791Z,43.87
2018-03-17T14:42:08.590Z,44.24
2018-03-17T14:43:17.429Z,43.68
2018-03-17T14:44:26.268Z,43.11
2018-03-17T14:45:35.107Z,42.75
2018-03-17T14:46:43.998Z,42.18
2018-03-17T14:47:52.785Z,42.47
2018-03-17T14:49:01.625Z,42.37
2018-03-17T14:50:10.463Z,42.44